Wetterdaten: Dienstag, 06.07.2010
Datum Zeit Temp. A. Feuchte A. Luftdruck Regen Wind Richtung Richtung Sonnenschein UV Solar Windben
06.07.2010 00:00 17,7 C 78 % 1020,0 hPa 0,0 mm 1,6 km/h (1 Bft) N-NO 22 0 min 0 UV-I 0 W/m 8,0 km/h (2 Bft)
06.07.2010 00:10 17,7 C 80 % 1020,0 hPa 0,0 mm 1,6 km/h (1 Bft) N-NO 22 0 min 0 UV-I 0 W/m 11,3 km/h (2 Bft)
06.07.2010 00:20 17,6 C 81 % 1020,0 hPa 0,0 mm 3,2 km/h (1 Bft) N-NO 22 0 min 0 UV-I 0 W/m 11,3 km/h (2 Bft)
06.07.2010 00:30 17,4 C 82 % 1020,0 hPa 0,0 mm 1,6 km/h (1 Bft) NO 45 0 min 0 UV-I 0 W/m 8,0 km/h (2 Bft)
06.07.2010 00:40 17,2 C 82 % 1020,0 hPa 0,0 mm 0,0 km/h (0 Bft) NO 45 0 min 0 UV-I 0 W/m 6,4 km/h (2 Bft)
06.07.2010 00:50 17,2 C 83 % 1020,0 hPa 0,0 mm 0,0 km/h (0 Bft) NO 45 0 min 0 UV-I 0 W/m 6,4 km/h (2 Bft)
06.07.2010 01:00 17,1 C 83 % 1020,0 hPa 0,0 mm 0,0 km/h (0 Bft) W 270 0 min 0 UV-I 0 W/m 4,8 km/h (1 Bft)
06.07.2010 01:10 17,1 C 84 % 1020,0 hPa 0,0 mm 0,0 km/h (0 Bft) W 270 0 min 0 UV-I 0 W/m 4,8 km/h (1 Bft)
06.07.2010 01:20 16,9 C 85 % 1020,0 hPa 0,0 mm 1,6 km/h (1 Bft) W 270 0 min 0 UV-I 0 W/m 8,0 km/h (2 Bft)
06.07.2010 01:30 16,8 C 84 % 1020,0 hPa 0,0 mm 1,6 km/h (1 Bft) NW 315 0 min 0 UV-I 0 W/m 6,4 km/h (2 Bft)
06.07.2010 01:40 16,7 C 82 % 1020,0 hPa 0,0 mm 1,6 km/h (1 Bft) W 270 0 min 0 UV-I 0 W/m 8,0 km/h (2 Bft)
06.07.2010 01:50 16,6 C 82 % 1020,0 hPa 0,0 mm 3,2 km/h (1 Bft) W-NW 292 0 min 0 UV-I 0 W/m 12,9 km/h (3 Bft)
06.07.2010 02:00 16,4 C 82 % 1020,0 hPa 0,0 mm 1,6 km/h (1 Bft) W 270 0 min 0 UV-I 0 W/m 6,4 km/h (2 Bft)
06.07.2010 02:10 16,3 C 82 % 1020,0 hPa 0,0 mm 0,0 km/h (0 Bft) W-NW 292 0 min 0 UV-I 0 W/m 4,8 km/h (1 Bft)
06.07.2010 02:20 16,2 C 83 % 1020,0 hPa 0,0 mm 0,0 km/h (0 Bft) W-NW 292 0 min 0 UV-I 0 W/m 4,8 km/h (1 Bft)
06.07.2010 02:30 16,1 C 83 % 1020,0 hPa 0,0 mm 0,0 km/h (0 Bft) W-NW 292 0 min 0 UV-I 0 W/m 1,6 km/h (1 Bft)
06.07.2010 02:40 16,0 C 84 % 1020,0 hPa 0,0 mm 0,0 km/h (0 Bft) W-NW 292 0 min 0 UV-I 0 W/m 4,8 km/h (1 Bft)
06.07.2010 02:50 15,9 C 84 % 1020,0 hPa 0,0 mm 0,0 km/h (0 Bft) W-NW 292 0 min 0 UV-I 0 W/m 3,2 km/h (1 Bft)
06.07.2010 03:00 15,9 C 84 % 1020,0 hPa 0,0 mm 0,0 km/h (0 Bft) W-NW 292 0 min 0 UV-I 0 W/m 4,8 km/h (1 Bft)
06.07.2010 03:10 15,8 C 84 % 1020,0 hPa 0,0 mm 0,0 km/h (0 Bft) W-NW 292 0 min 0 UV-I 0 W/m 3,2 km/h (1 Bft)
06.07.2010 03:20 15,8 C 84 % 1020,0 hPa 0,0 mm 1,6 km/h (1 Bft) W-NW 292 0 min 0 UV-I 0 W/m 6,4 km/h (2 Bft)
06.07.2010 03:30 15,7 C 84 % 1020,0 hPa 0,0 mm 0,0 km/h (0 Bft) W-NW 292 0 min 0 UV-I 0 W/m 3,2 km/h (1 Bft)
06.07.2010 03:40 15,7 C 85 % 1020,0 hPa 0,0 mm 0,0 km/h (0 Bft) NW 315 0 min 0 UV-I 0 W/m 6,4 km/h (2 Bft)
06.07.2010 03:50 15,5 C 85 % 1020,0 hPa 0,0 mm 1,6 km/h (1 Bft) NW 315 0 min 0 UV-I 0 W/m 4,8 km/h (1 Bft)
06.07.2010 04:00 15,2 C 85 % 1020,0 hPa 0,0 mm 0,0 km/h (0 Bft) W-NW 292 0 min 0 UV-I 0 W/m 8,0 km/h (2 Bft)
06.07.2010 04:10 15,0 C 86 % 1020,0 hPa 0,0 mm 1,6 km/h (1 Bft) W-NW 292 0 min 0 UV-I 0 W/m 6,4 km/h (2 Bft)
06.07.2010 04:20 14,9 C 85 % 1020,0 hPa 0,0 mm 1,6 km/h (1 Bft) W-NW 292 0 min 0 UV-I 0 W/m 9,7 km/h (2 Bft)
06.07.2010 04:30 14,7 C 85 % 1020,0 hPa 0,0 mm 1,6 km/h (1 Bft) NW 315 0 min 0 UV-I 0 W/m 6,4 km/h (2 Bft)
06.07.2010 04:40 14,5 C 85 % 1020,0 hPa 0,0 mm 0,0 km/h (0 Bft) W-NW 292 0 min 0 UV-I 0 W/m 6,4 km/h (2 Bft)
06.07.2010 04:50 14,3 C 86 % 1020,0 hPa 0,0 mm 0,0 km/h (0 Bft) W 270 0 min 0 UV-I 0 W/m 4,8 km/h (1 Bft)
06.07.2010 05:00 14,2 C 87 % 1020,0 hPa 0,0 mm 1,6 km/h (1 Bft) NW 315 0 min 0 UV-I 0 W/m 8,0 km/h (2 Bft)
06.07.2010 05:10 14,2 C 86 % 1020,0 hPa 0,0 mm 1,6 km/h (1 Bft) NW 315 0 min 0 UV-I 0 W/m 8,0 km/h (2 Bft)
06.07.2010 05:20 14,1 C 87 % 1020,0 hPa 0,0 mm 1,6 km/h (1 Bft) W-NW 292 0 min 0 UV-I 0 W/m 6,4 km/h (2 Bft)
06.07.2010 05:30 14,0 C 87 % 1020,0 hPa 0,0 mm 1,6 km/h (1 Bft) W-NW 292 0 min 0 UV-I 5 W/m 6,4 km/h (2 Bft)
06.07.2010 05:40 13,8 C 87 % 1020,0 hPa 0,0 mm 1,6 km/h (1 Bft) NW 315 0 min 0 UV-I 9 W/m 6,4 km/h (2 Bft)
06.07.2010 05:50 13,6 C 87 % 1020,0 hPa 0,0 mm 1,6 km/h (1 Bft) W-NW 292 0 min 0 UV-I 14 W/m 8,0 km/h (2 Bft)
06.07.2010 06:00 13,5 C 88 % 1020,0 hPa 0,0 mm 1,6 km/h (1 Bft) NW 315 0 min 0 UV-I 18 W/m 8,0 km/h (2 Bft)
06.07.2010 06:10 13,4 C 88 % 1020,0 hPa 0,0 mm 1,6 km/h (1 Bft) NW 315 0 min 0 UV-I 21 W/m 11,3 km/h (2 Bft)
06.07.2010 06:20 13,3 C 88 % 1020,0 hPa 0,0 mm 3,2 km/h (1 Bft) W-NW 292 0 min 0 UV-I 30 W/m 11,3 km/h (2 Bft)
06.07.2010 06:30 13,3 C 88 % 1020,0 hPa 0,0 mm 3,2 km/h (1 Bft) NW 315 10 min 0 UV-I 88 W/m 11,3 km/h (2 Bft)
06.07.2010 06:40 13,3 C 88 % 1020,0 hPa 0,0 mm 3,2 km/h (1 Bft) W-NW 292 10 min 0 UV-I 107 W/m 11,3 km/h (2 Bft)
06.07.2010 06:50 13,4 C 87 % 1020,0 hPa 0,0 mm 3,2 km/h (1 Bft) NW 315 10 min 1 UV-I 134 W/m 9,7 km/h (2 Bft)
06.07.2010 07:00 13,4 C 86 % 1020,0 hPa 0,0 mm 4,8 km/h (1 Bft) W-NW 292 10 min 1 UV-I 155 W/m 9,7 km/h (2 Bft)
06.07.2010 07:10 13,7 C 85 % 1020,0 hPa 0,0 mm 3,2 km/h (1 Bft) W-NW 292 10 min 1 UV-I 179 W/m 8,0 km/h (2 Bft)
06.07.2010 07:20 13,8 C 84 % 1020,0 hPa 0,0 mm 1,6 km/h (1 Bft) NW 315 10 min 1 UV-I 202 W/m 8,0 km/h (2 Bft)
06.07.2010 07:30 14,0 C 83 % 1020,0 hPa 0,0 mm 3,2 km/h (1 Bft) W 270 10 min 1 UV-I 230 W/m 8,0 km/h (2 Bft)
06.07.2010 07:40 14,3 C 82 % 1020,0 hPa 0,0 mm 1,6 km/h (1 Bft) W 270 10 min 1 UV-I 253 W/m 6,4 km/h (2 Bft)
06.07.2010 07:50 14,5 C 80 % 1020,0 hPa 0,0 mm 1,6 km/h (1 Bft) W 270 10 min 1 UV-I 279 W/m 9,7 km/h (2 Bft)
06.07.2010 08:00 14,9 C 79 % 1020,0 hPa 0,0 mm 1,5 km/h (1 Bft) N-NW 336 10 min 1 UV-I 305 W/m 3,2 km/h (1 Bft)
06.07.2010 08:10 15,0 C 78 % 1020,0 hPa 0,0 mm 3,2 km/h (1 Bft) W 270 10 min 1 UV-I 336 W/m 9,7 km/h (2 Bft)
06.07.2010 08:20 15,1 C 77 % 1020,0 hPa 0,0 mm 1,6 km/h (1 Bft) N-NO 22 10 min 1 UV-I 362 W/m 9,7 km/h (2 Bft)
06.07.2010 08:30 15,3 C 76 % 1020,0 hPa 0,0 mm 3,2 km/h (1 Bft) NW 315 10 min 2 UV-I 387 W/m 11,3 km/h (2 Bft)
06.07.2010 08:40 15,5 C 74 % 1020,0 hPa 0,0 mm 4,8 km/h (1 Bft) W-NW 292 10 min 2 UV-I 417 W/m 12,9 km/h (3 Bft)
06.07.2010 08:50 15,7 C 72 % 1020,0 hPa 0,0 mm 3,2 km/h (1 Bft) W-NW 292 10 min 2 UV-I 441 W/m 11,3 km/h (2 Bft)
06.07.2010 09:00 16,1 C 72 % 1020,0 hPa 0,0 mm 3,2 km/h (1 Bft) W-NW 292 10 min 2 UV-I 469 W/m 9,7 km/h (2 Bft)
06.07.2010 09:10 16,3 C 70 % 1020,0 hPa 0,0 mm 4,8 km/h (1 Bft) W-NW 292 10 min 2 UV-I 513 W/m 14,5 km/h (3 Bft)
06.07.2010 09:20 16,6 C 68 % 1020,0 hPa 0,0 mm 8,0 km/h (2 Bft) W 270 10 min 3 UV-I 564 W/m 20,9 km/h (4 Bft)
06.07.2010 09:30 16,8 C 67 % 1020,0 hPa 0,0 mm 4,8 km/h (1 Bft) W 270 10 min 3 UV-I 670 W/m 14,5 km/h (3 Bft)
06.07.2010 09:40 16,8 C 67 % 1020,0 hPa 0,0 mm 4,8 km/h (1 Bft) W-NW 292 10 min 3 UV-I 673 W/m 14,5 km/h (3 Bft)
06.07.2010 09:50 17,0 C 65 % 1020,0 hPa 0,0 mm 6,4 km/h (2 Bft) W 270 0 min 3 UV-I 237 W/m 19,3 km/h (3 Bft)
06.07.2010 10:00 16,9 C 65 % 1020,0 hPa 0,0 mm 6,4 km/h (2 Bft) W-NW 292 10 min 4 UV-I 754 W/m 17,7 km/h (3 Bft)
06.07.2010 10:10 17,4 C 65 % 1020,0 hPa 0,0 mm 4,8 km/h (1 Bft) W-NW 292 10 min 4 UV-I 779 W/m 12,9 km/h (3 Bft)
06.07.2010 10:20 17,3 C 64 % 1020,0 hPa 0,0 mm 6,4 km/h (2 Bft) W 270 10 min 4 UV-I 817 W/m 17,7 km/h (3 Bft)
06.07.2010 10:30 17,7 C 64 % 1020,0 hPa 0,0 mm 6,4 km/h (2 Bft) W-NW 292 10 min 4 UV-I 777 W/m 19,3 km/h (3 Bft)
06.07.2010 10:40 18,0 C 60 % 1020,0 hPa 0,0 mm 4,8 km/h (1 Bft) NW 315 10 min 5 UV-I 816 W/m 16,1 km/h (3 Bft)
06.07.2010 10:50 18,2 C 61 % 1020,0 hPa 0,0 mm 4,8 km/h (1 Bft) W-NW 292 10 min 5 UV-I 868 W/m 12,9 km/h (3 Bft)
06.07.2010 11:00 18,7 C 60 % 1020,0 hPa 0,0 mm 4,8 km/h (1 Bft) W-NW 292 10 min 5 UV-I 865 W/m 14,5 km/h (3 Bft)
06.07.2010 11:10 19,0 C 57 % 1020,0 hPa 0,0 mm 6,4 km/h (2 Bft) W 270 10 min 5 UV-I 956 W/m 16,1 km/h (3 Bft)
06.07.2010 11:20 18,9 C 57 % 1020,0 hPa 0,0 mm 4,8 km/h (1 Bft) W-NW 292 10 min 5 UV-I 949 W/m 16,1 km/h (3 Bft)
06.07.2010 11:30 18,6 C 56 % 1020,0 hPa 0,0 mm 6,4 km/h (2 Bft) W-NW 292 10 min 6 UV-I 916 W/m 19,3 km/h (3 Bft)
06.07.2010 11:40 19,2 C 56 % 1020,0 hPa 0,0 mm 8,0 km/h (2 Bft) W 270 10 min 6 UV-I 956 W/m 17,7 km/h (3 Bft)
06.07.2010 11:50 19,4 C 52 % 1020,0 hPa 0,0 mm 8,0 km/h (2 Bft) W 270 10 min 6 UV-I 981 W/m 19,3 km/h (3 Bft)
06.07.2010 12:00 19,4 C 52 % 1020,0 hPa 0,0 mm 6,4 km/h (2 Bft) W-NW 292 10 min 7 UV-I 1011 W/m 19,3 km/h (3 Bft)
06.07.2010 12:10 19,9 C 53 % 1021,0 hPa 0,0 mm 8,0 km/h (2 Bft) W 270 10 min 7 UV-I 1097 W/m 19,3 km/h (3 Bft)
06.07.2010 12:20 19,2 C 55 % 1021,0 hPa 0,0 mm 6,4 km/h (2 Bft) W 270 0 min 7 UV-I 373 W/m 19,3 km/h (3 Bft)
06.07.2010 12:30 19,8 C 55 % 1021,0 hPa 0,0 mm 6,4 km/h (2 Bft) W 270 10 min 7 UV-I 1155 W/m 19,3 km/h (3 Bft)
06.07.2010 12:40 20,4 C 53 % 1021,0 hPa 0,0 mm 4,8 km/h (1 Bft) W-NW 292 10 min 7 UV-I 962 W/m 16,1 km/h (3 Bft)
06.07.2010 12:50 20,4 C 52 % 1021,0 hPa 0,0 mm 6,4 km/h (2 Bft) W-NW 292 10 min 8 UV-I 1151 W/m 19,3 km/h (3 Bft)
06.07.2010 13:00 19,9 C 54 % 1021,0 hPa 0,0 mm 8,0 km/h (2 Bft) W 270 0 min 4 UV-I 364 W/m 17,7 km/h (3 Bft)
06.07.2010 13:10 19,1 C 56 % 1021,0 hPa 0,0 mm 4,8 km/h (1 Bft) W-NW 292 0 min 2 UV-I 211 W/m 12,9 km/h (3 Bft)
06.07.2010 13:20 18,9 C 57 % 1021,0 hPa 0,0 mm 4,8 km/h (1 Bft) W-NW 292 0 min 6 UV-I 399 W/m 12,9 km/h (3 Bft)
06.07.2010 13:30 19,5 C 56 % 1021,0 hPa 0,0 mm 3,2 km/h (1 Bft) W 270 0 min 4 UV-I 406 W/m 11,3 km/h (2 Bft)
06.07.2010 13:40 19,8 C 54 % 1021,0 hPa 0,0 mm 3,2 km/h (1 Bft) W 270 10 min 7 UV-I 1216 W/m 12,9 km/h (3 Bft)
06.07.2010 13:50 19,8 C 54 % 1021,0 hPa 0,0 mm 4,8 km/h (1 Bft) W 270 0 min 7 UV-I 420 W/m 12,9 km/h (3 Bft)
06.07.2010 14:00 20,2 C 54 % 1021,0 hPa 0,0 mm 3,2 km/h (1 Bft) W-NW 292 10 min 7 UV-I 1078 W/m 12,9 km/h (3 Bft)
06.07.2010 14:10 20,2 C 52 % 1021,0 hPa 0,0 mm 4,8 km/h (1 Bft) NW 315 10 min 7 UV-I 1028 W/m 17,7 km/h (3 Bft)
06.07.2010 14:20 19,8 C 54 % 1021,0 hPa 0,0 mm 4,8 km/h (1 Bft) W-NW 292 0 min 4 UV-I 417 W/m 16,1 km/h (3 Bft)
06.07.2010 14:30 19,9 C 54 % 1021,0 hPa 0,0 mm 3,2 km/h (1 Bft) W 270 0 min 5 UV-I 455 W/m 9,7 km/h (2 Bft)
06.07.2010 14:40 20,3 C 52 % 1021,0 hPa 0,0 mm 6,4 km/h (2 Bft) W 270 0 min 6 UV-I 308 W/m 14,5 km/h (3 Bft)
06.07.2010 14:50 19,7 C 54 % 1021,0 hPa 0,0 mm 8,0 km/h (2 Bft) W-SW 247 0 min 3 UV-I 318 W/m 17,7 km/h (3 Bft)
06.07.2010 15:00 19,6 C 53 % 1021,0 hPa 0,0 mm 4,8 km/h (1 Bft) W-NW 292 0 min 3 UV-I 288 W/m 16,1 km/h (3 Bft)
06.07.2010 15:10 20,0 C 51 % 1021,0 hPa 0,0 mm 4,8 km/h (1 Bft) W-NW 292 10 min 6 UV-I 858 W/m 16,1 km/h (3 Bft)
06.07.2010 15:20 20,9 C 51 % 1021,0 hPa 0,0 mm 8,0 km/h (2 Bft) W 270 10 min 6 UV-I 925 W/m 24,1 km/h (4 Bft)
06.07.2010 15:30 21,2 C 49 % 1021,0 hPa 0,0 mm 8,0 km/h (2 Bft) W 270 10 min 6 UV-I 1041 W/m 17,7 km/h (3 Bft)
06.07.2010 15:40 21,7 C 48 % 1021,0 hPa 0,0 mm 9,7 km/h (2 Bft) W 270 10 min 6 UV-I 1106 W/m 24,1 km/h (4 Bft)
06.07.2010 15:50 22,1 C 46 % 1021,0 hPa 0,0 mm 6,4 km/h (2 Bft) W 270 10 min 6 UV-I 1021 W/m 19,3 km/h (3 Bft)
06.07.2010 16:00 21,4 C 45 % 1021,0 hPa 0,0 mm 11,5 km/h (2 Bft) NW 311 10 min 4 UV-I 568 W/m 22,5 km/h (4 Bft)
06.07.2010 16:10 21,2 C 46 % 1021,0 hPa 0,0 mm 8,0 km/h (2 Bft) W 270 0 min 4 UV-I 353 W/m 19,3 km/h (3 Bft)
06.07.2010 16:20 20,7 C 48 % 1021,0 hPa 0,0 mm 8,0 km/h (2 Bft) W 270 0 min 2 UV-I 304 W/m 19,3 km/h (3 Bft)
06.07.2010 16:30 20,6 C 49 % 1021,0 hPa 0,0 mm 6,4 km/h (2 Bft) W 270 10 min 4 UV-I 830 W/m 17,7 km/h (3 Bft)
06.07.2010 16:40 21,6 C 47 % 1021,0 hPa 0,0 mm 6,4 km/h (2 Bft) W-NW 292 10 min 4 UV-I 937 W/m 19,3 km/h (3 Bft)
06.07.2010 16:50 21,4 C 47 % 1021,0 hPa 0,0 mm 8,0 km/h (2 Bft) W 270 10 min 4 UV-I 661 W/m 17,7 km/h (3 Bft)
06.07.2010 17:00 21,5 C 48 % 1021,0 hPa 0,0 mm 6,4 km/h (2 Bft) W-NW 292 10 min 4 UV-I 752 W/m 20,9 km/h (4 Bft)
06.07.2010 17:10 21,8 C 46 % 1021,0 hPa 0,0 mm 6,4 km/h (2 Bft) W 270 10 min 3 UV-I 759 W/m 17,7 km/h (3 Bft)
06.07.2010 17:20 21,5 C 46 % 1021,0 hPa 0,0 mm 9,7 km/h (2 Bft) W 270 0 min 3 UV-I 292 W/m 17,7 km/h (3 Bft)
06.07.2010 17:30 21,0 C 47 % 1021,0 hPa 0,0 mm 6,4 km/h (2 Bft) W 270 10 min 3 UV-I 371 W/m 14,5 km/h (3 Bft)
06.07.2010 17:40 20,9 C 49 % 1021,0 hPa 0,0 mm 4,8 km/h (1 Bft) W-NW 292 10 min 2 UV-I 311 W/m 14,5 km/h (3 Bft)
06.07.2010 17:50 20,7 C 49 % 1021,0 hPa 0,0 mm 4,8 km/h (1 Bft) W 270 0 min 2 UV-I 214 W/m 12,9 km/h (3 Bft)
06.07.2010 18:00 20,6 C 49 % 1021,0 hPa 0,0 mm 4,8 km/h (1 Bft) W-NW 292 0 min 1 UV-I 211 W/m 12,9 km/h (3 Bft)
06.07.2010 18:10 20,6 C 49 % 1021,0 hPa 0,0 mm 3,2 km/h (1 Bft) W 270 0 min 1 UV-I 190 W/m 11,3 km/h (2 Bft)
06.07.2010 18:20 20,5 C 49 % 1021,0 hPa 0,0 mm 3,2 km/h (1 Bft) W-NW 292 0 min 1 UV-I 162 W/m 11,3 km/h (2 Bft)
06.07.2010 18:30 20,3 C 50 % 1021,0 hPa 0,0 mm 3,2 km/h (1 Bft) W-NW 292 0 min 1 UV-I 121 W/m 12,9 km/h (3 Bft)
06.07.2010 18:40 20,1 C 50 % 1021,0 hPa 0,0 mm 3,2 km/h (1 Bft) W-NW 292 0 min 1 UV-I 98 W/m 12,9 km/h (3 Bft)
06.07.2010 18:50 19,9 C 51 % 1021,0 hPa 0,0 mm 3,2 km/h (1 Bft) W-NW 292 0 min 1 UV-I 83 W/m 12,9 km/h (3 Bft)
06.07.2010 19:00 19,8 C 52 % 1021,0 hPa 0,0 mm 1,6 km/h (1 Bft) NW 315 0 min 0 UV-I 70 W/m 4,8 km/h (1 Bft)
06.07.2010 19:10 19,8 C 53 % 1021,0 hPa 0,0 mm 0,0 km/h (0 Bft) W-NW 292 10 min 1 UV-I 311 W/m 3,2 km/h (1 Bft)
06.07.2010 19:20 20,3 C 51 % 1021,0 hPa 0,0 mm 1,6 km/h (1 Bft) NW 315 10 min 1 UV-I 325 W/m 4,8 km/h (1 Bft)
06.07.2010 19:30 20,3 C 52 % 1021,0 hPa 0,0 mm 3,2 km/h (1 Bft) W-NW 292 10 min 1 UV-I 213 W/m 11,3 km/h (2 Bft)
06.07.2010 19:40 20,3 C 50 % 1021,0 hPa 0,0 mm 3,2 km/h (1 Bft) W-NW 292 10 min 1 UV-I 287 W/m 11,3 km/h (2 Bft)
06.07.2010 19:50 20,8 C 47 % 1021,0 hPa 0,0 mm 4,8 km/h (1 Bft) W 270 10 min 1 UV-I 283 W/m 16,1 km/h (3 Bft)
06.07.2010 20:00 20,8 C 49 % 1021,0 hPa 0,0 mm 4,8 km/h (1 Bft) W 270 10 min 1 UV-I 225 W/m 17,7 km/h (3 Bft)
06.07.2010 20:10 20,6 C 50 % 1021,0 hPa 0,0 mm 4,8 km/h (1 Bft) W-SW 247 10 min 1 UV-I 190 W/m 12,9 km/h (3 Bft)
06.07.2010 20:20 20,2 C 52 % 1021,0 hPa 0,0 mm 6,4 km/h (2 Bft) W 270 10 min 1 UV-I 169 W/m 17,7 km/h (3 Bft)
06.07.2010 20:30 19,9 C 53 % 1021,0 hPa 0,0 mm 4,8 km/h (1 Bft) W 270 0 min 0 UV-I 56 W/m 16,1 km/h (3 Bft)
06.07.2010 20:40 19,5 C 53 % 1021,0 hPa 0,0 mm 4,0 km/h (1 Bft) W 269 0 min 0 UV-I 46 W/m 14,5 km/h (3 Bft)
06.07.2010 20:50 19,3 C 52 % 1021,0 hPa 0,0 mm 4,7 km/h (1 Bft) W 272 0 min 0 UV-I 41 W/m 11,3 km/h (2 Bft)
06.07.2010 21:00 19,1 C 54 % 1021,0 hPa 0,0 mm 2,4 km/h (1 Bft) W-NW 289 0 min 0 UV-I 29 W/m 11,3 km/h (2 Bft)
06.07.2010 21:10 18,8 C 54 % 1021,0 hPa 0,0 mm 2,9 km/h (1 Bft) W 267 0 min 0 UV-I 21 W/m 11,3 km/h (2 Bft)
06.07.2010 21:20 18,7 C 55 % 1021,0 hPa 0,0 mm 1,6 km/h (1 Bft) W-NW 292 0 min 0 UV-I 18 W/m 6,4 km/h (2 Bft)
06.07.2010 21:30 18,4 C 56 % 1021,0 hPa 0,0 mm 0,9 km/h (0 Bft) W 279 10 min 0 UV-I 11 W/m 4,8 km/h (1 Bft)
06.07.2010 21:40 18,2 C 57 % 1021,0 hPa 0,0 mm 1,1 km/h (1 Bft) W-NW 290 0 min 0 UV-I 0 W/m 4,8 km/h (1 Bft)
06.07.2010 21:50 18,0 C 58 % 1021,0 hPa 0,0 mm 0,7 km/h (0 Bft) W-SW 257 0 min 0 UV-I 0 W/m 4,8 km/h (1 Bft)
06.07.2010 22:00 17,9 C 60 % 1021,0 hPa 0,0 mm 0,0 km/h (0 Bft) W-SW 247 0 min 0 UV-I 0 W/m 4,8 km/h (1 Bft)
06.07.2010 22:10 17,7 C 62 % 1021,8 hPa 0,0 mm 0,0 km/h (0 Bft) W 272 0 min 0 UV-I 0 W/m 0,0 km/h (0 Bft)
06.07.2010 22:20 17,7 C 63 % 1021,8 hPa 0,0 mm 0,0 km/h (0 Bft) W 272 0 min 0 UV-I 0 W/m 0,0 km/h (0 Bft)
06.07.2010 22:30 17,7 C 64 % 1021,8 hPa 0,0 mm 0,0 km/h (0 Bft) W 272 0 min 0 UV-I 0 W/m 0,0 km/h (0 Bft)
06.07.2010 22:40 17,7 C 65 % 1021,8 hPa 0,0 mm 0,0 km/h (0 Bft) W 272 0 min 0 UV-I 0 W/m 0,0 km/h (0 Bft)
06.07.2010 22:50 17,7 C 66 % 1021,8 hPa 0,0 mm 0,0 km/h (0 Bft) W 272 0 min 0 UV-I 0 W/m 0,0 km/h (0 Bft)
06.07.2010 23:00 16,9 C 67 % 1021,9 hPa 0,0 mm 0,0 km/h (0 Bft) W 272 0 min 0 UV-I 0 W/m 0,0 km/h (0 Bft)
06.07.2010 23:10 16,7 C 69 % 1021,9 hPa 0,0 mm 0,0 km/h (0 Bft) W 272 0 min 0 UV-I 0 W/m 0,0 km/h (0 Bft)
06.07.2010 23:20 16,0 C 70 % 1022,0 hPa 0,0 mm 0,0 km/h (0 Bft) W 272 0 min 0 UV-I 0 W/m 0,0 km/h (0 Bft)
06.07.2010 23:40 15,1 C 71 % 1022,1 hPa 0,0 mm 0,0 km/h (0 Bft) W 272 0 min 0 UV-I 0 W/m 0,0 km/h (0 Bft)
06.07.2010 23:50 15,1 C 73 % 1022,3 hPa 0,0 mm 0,0 km/h (0 Bft) W 272 0 min 0 UV-I 0 W/m 0,0 km/h (0 Bft)
_ Min-Zeit 06:10 16:00 00:00 - 00:40 - - - - - 22:10
Minimum _ 13,3 C 45 % 1020,0 hPa - 0,0 km/h (0 Bft) - - - - - 0,0 km/h (0 Bft)
_ Max-Zeit 15:50 06:00 23:50 00:00 16:00 - - 06:30 12:50 13:40 15:20
Maximum _ 22,3 C 88 % 1022,3 hPa 0,0 mm 11,5 km/h
NW (2 Bft)
- - 10 min 8 UV-I 1216 W/m 24,1 km/h
N-NW (4 Bft)
Durchschnitt _ 17,8 C 66 % 1020,6 hPa #0,0 mm 3,4 km/h (1 Bft) W-NW - #10:20 h 3 UV-I 460 W/m 11,0 km/h (2 Bft)